sensor_id;sensor_type;location;lat;lon;timestamp;P1;durP1;ratioP1;P2;durP2;ratioP2
69260;SDS011;56378;52.404;20.816;2023-02-13T00:00:16;38.60;;;13.93;;
69260;SDS011;56378;52.404;20.816;2023-02-13T00:02:44;39.97;;;13.57;;
69260;SDS011;56378;52.404;20.816;2023-02-13T00:05:10;40.07;;;13.20;;
69260;SDS011;56378;52.404;20.816;2023-02-13T00:07:35;38.55;;;14.05;;
69260;SDS011;56378;52.404;20.816;2023-02-13T00:10:02;38.20;;;12.98;;
69260;SDS011;56378;52.404;20.816;2023-02-13T00:12:28;35.43;;;12.37;;
69260;SDS011;56378;52.404;20.816;2023-02-13T00:14:55;33.20;;;13.13;;
69260;SDS011;56378;52.404;20.816;2023-02-13T00:17:20;36.83;;;12.88;;
69260;SDS011;56378;52.404;20.816;2023-02-13T00:19:46;31.87;;;12.97;;
69260;SDS011;56378;52.404;20.816;2023-02-13T00:22:12;37.22;;;13.82;;
69260;SDS011;56378;52.404;20.816;2023-02-13T00:24:40;37.15;;;13.50;;
69260;SDS011;56378;52.404;20.816;2023-02-13T00:27:06;36.10;;;12.38;;
69260;SDS011;56378;52.404;20.816;2023-02-13T00:29:31;34.37;;;12.97;;
69260;SDS011;56378;52.404;20.816;2023-02-13T00:31:57;40.10;;;14.48;;
69260;SDS011;56378;52.404;20.816;2023-02-13T00:34:24;35.50;;;13.15;;
69260;SDS011;56378;52.404;20.816;2023-02-13T00:36:49;36.33;;;13.80;;
69260;SDS011;56378;52.404;20.816;2023-02-13T00:39:15;36.38;;;13.45;;
69260;SDS011;56378;52.404;20.816;2023-02-13T00:41:41;39.00;;;13.43;;
69260;SDS011;56378;52.404;20.816;2023-02-13T00:44:07;36.60;;;13.65;;
69260;SDS011;56378;52.404;20.816;2023-02-13T00:46:33;37.55;;;13.63;;
69260;SDS011;56378;52.404;20.816;2023-02-13T00:49:00;33.63;;;12.95;;
69260;SDS011;56378;52.404;20.816;2023-02-13T00:51:26;36.50;;;13.38;;
69260;SDS011;56378;52.404;20.816;2023-02-13T00:53:52;31.67;;;12.70;;
69260;SDS011;56378;52.404;20.816;2023-02-13T00:56:17;29.38;;;12.55;;
69260;SDS011;56378;52.404;20.816;2023-02-13T00:58:43;31.63;;;12.87;;
69260;SDS011;56378;52.404;20.816;2023-02-13T01:01:09;32.90;;;12.48;;
69260;SDS011;56378;52.404;20.816;2023-02-13T01:03:35;34.15;;;12.70;;
69260;SDS011;56378;52.404;20.816;2023-02-13T01:06:01;32.30;;;12.17;;
69260;SDS011;56378;52.404;20.816;2023-02-13T01:08:26;35.55;;;13.27;;
69260;SDS011;56378;52.404;20.816;2023-02-13T01:10:52;29.50;;;12.40;;
69260;SDS011;56378;52.404;20.816;2023-02-13T01:13:18;34.08;;;11.18;;
69260;SDS011;56378;52.404;20.816;2023-02-13T01:15:45;32.72;;;12.18;;
69260;SDS011;56378;52.404;20.816;2023-02-13T01:18:12;35.40;;;11.65;;
69260;SDS011;56378;52.404;20.816;2023-02-13T01:20:39;28.03;;;10.57;;
69260;SDS011;56378;52.404;20.816;2023-02-13T01:23:05;31.40;;;11.63;;
69260;SDS011;56378;52.404;20.816;2023-02-13T01:25:31;30.48;;;11.25;;
69260;SDS011;56378;52.404;20.816;2023-02-13T01:27:57;28.88;;;10.70;;
69260;SDS011;56378;52.404;20.816;2023-02-13T01:30:23;33.30;;;10.90;;
69260;SDS011;56378;52.404;20.816;2023-02-13T01:32:49;27.90;;;10.35;;
69260;SDS011;56378;52.404;20.816;2023-02-13T01:35:14;26.23;;;10.50;;
69260;SDS011;56378;52.404;20.816;2023-02-13T01:37:40;28.30;;;11.15;;
69260;SDS011;56378;52.404;20.816;2023-02-13T01:40:07;28.52;;;10.63;;
69260;SDS011;56378;52.404;20.816;2023-02-13T01:42:36;25.85;;;10.43;;
69260;SDS011;56378;52.404;20.816;2023-02-13T01:45:04;28.70;;;10.35;;
69260;SDS011;56378;52.404;20.816;2023-02-13T01:55:36;31.98;;;10.25;;
69260;SDS011;56378;52.404;20.816;2023-02-13T01:58:26;29.42;;;10.20;;
69260;SDS011;56378;52.404;20.816;2023-02-13T02:00:55;26.70;;;9.27;;
69260;SDS011;56378;52.404;20.816;2023-02-13T02:03:56;27.17;;;10.50;;
69260;SDS011;56378;52.404;20.816;2023-02-13T02:06:31;28.52;;;9.82;;
69260;SDS011;56378;52.404;20.816;2023-02-13T02:09:09;24.65;;;9.73;;
69260;SDS011;56378;52.404;20.816;2023-02-13T02:14:05;27.42;;;10.15;;
69260;SDS011;56378;52.404;20.816;2023-02-13T02:16:31;29.60;;;9.50;;
69260;SDS011;56378;52.404;20.816;2023-02-13T02:18:57;24.98;;;9.73;;
69260;SDS011;56378;52.404;20.816;2023-02-13T02:21:40;22.95;;;9.32;;
69260;SDS011;56378;52.404;20.816;2023-02-13T02:24:27;26.02;;;10.23;;
69260;SDS011;56378;52.404;20.816;2023-02-13T02:35:18;21.42;;;9.35;;
69260;SDS011;56378;52.404;20.816;2023-02-13T02:38:02;31.00;;;10.27;;
69260;SDS011;56378;52.404;20.816;2023-02-13T02:43:10;24.40;;;9.35;;
69260;SDS011;56378;52.404;20.816;2023-02-13T02:45:58;22.95;;;9.07;;
69260;SDS011;56378;52.404;20.816;2023-02-13T02:48:52;23.15;;;8.98;;
69260;SDS011;56378;52.404;20.816;2023-02-13T02:54:41;24.13;;;9.25;;
69260;SDS011;56378;52.404;20.816;2023-02-13T02:57:32;20.85;;;8.65;;
69260;SDS011;56378;52.404;20.816;2023-02-13T03:00:21;22.65;;;8.50;;
69260;SDS011;56378;52.404;20.816;2023-02-13T03:03:15;21.20;;;8.95;;
69260;SDS011;56378;52.404;20.816;2023-02-13T03:06:02;21.00;;;9.13;;
69260;SDS011;56378;52.404;20.816;2023-02-13T03:08:46;24.80;;;9.23;;
69260;SDS011;56378;52.404;20.816;2023-02-13T03:11:40;22.52;;;9.30;;
69260;SDS011;56378;52.404;20.816;2023-02-13T03:14:28;19.90;;;8.88;;
69260;SDS011;56378;52.404;20.816;2023-02-13T03:16:55;25.53;;;9.17;;
69260;SDS011;56378;52.404;20.816;2023-02-13T03:22:53;23.35;;;9.18;;
69260;SDS011;56378;52.404;20.816;2023-02-13T03:25:30;25.83;;;8.50;;
69260;SDS011;56378;52.404;20.816;2023-02-13T03:34:31;23.85;;;9.13;;
69260;SDS011;56378;52.404;20.816;2023-02-13T03:37:27;25.45;;;9.73;;
69260;SDS011;56378;52.404;20.816;2023-02-13T03:40:28;22.40;;;8.90;;
69260;SDS011;56378;52.404;20.816;2023-02-13T03:46:28;23.20;;;9.30;;
69260;SDS011;56378;52.404;20.816;2023-02-13T03:48:57;20.77;;;9.05;;
69260;SDS011;56378;52.404;20.816;2023-02-13T03:51:48;25.88;;;9.10;;
69260;SDS011;56378;52.404;20.816;2023-02-13T03:55:05;24.63;;;9.85;;
69260;SDS011;56378;52.404;20.816;2023-02-13T03:57:28;24.65;;;9.15;;
69260;SDS011;56378;52.404;20.816;2023-02-13T04:00:15;25.77;;;9.60;;
69260;SDS011;56378;52.404;20.816;2023-02-13T04:05:53;23.58;;;9.13;;
69260;SDS011;56378;52.404;20.816;2023-02-13T04:08:26;20.60;;;9.35;;
69260;SDS011;56378;52.404;20.816;2023-02-13T04:16:22;23.95;;;9.80;;
69260;SDS011;56378;52.404;20.816;2023-02-13T04:19:12;23.95;;;11.13;;
69260;SDS011;56378;52.404;20.816;2023-02-13T04:21:39;31.92;;;11.00;;
69260;SDS011;56378;52.404;20.816;2023-02-13T04:24:05;24.35;;;9.85;;
69260;SDS011;56378;52.404;20.816;2023-02-13T04:26:33;25.75;;;9.85;;
69260;SDS011;56378;52.404;20.816;2023-02-13T04:29:01;27.40;;;10.77;;
69260;SDS011;56378;52.404;20.816;2023-02-13T04:31:27;24.80;;;8.95;;
69260;SDS011;56378;52.404;20.816;2023-02-13T04:33:53;26.23;;;9.73;;
69260;SDS011;56378;52.404;20.816;2023-02-13T04:36:19;22.38;;;9.23;;
69260;SDS011;56378;52.404;20.816;2023-02-13T04:38:44;26.70;;;9.10;;
69260;SDS011;56378;52.404;20.816;2023-02-13T04:41:10;25.30;;;9.63;;
69260;SDS011;56378;52.404;20.816;2023-02-13T04:43:36;25.08;;;9.57;;
69260;SDS011;56378;52.404;20.816;2023-02-13T04:46:02;27.20;;;9.33;;
69260;SDS011;56378;52.404;20.816;2023-02-13T04:48:28;25.40;;;10.27;;
69260;SDS011;56378;52.404;20.816;2023-02-13T04:50:53;27.63;;;10.13;;
69260;SDS011;56378;52.404;20.816;2023-02-13T04:53:19;24.52;;;9.85;;
69260;SDS011;56378;52.404;20.816;2023-02-13T04:55:45;27.77;;;9.00;;
69260;SDS011;56378;52.404;20.816;2023-02-13T04:58:11;21.48;;;9.00;;
69260;SDS011;56378;52.404;20.816;2023-02-13T05:00:36;23.53;;;10.00;;
69260;SDS011;56378;52.404;20.816;2023-02-13T05:03:06;25.52;;;9.63;;
69260;SDS011;56378;52.404;20.816;2023-02-13T05:05:33;24.02;;;9.13;;
69260;SDS011;56378;52.404;20.816;2023-02-13T05:07:59;26.13;;;9.70;;
69260;SDS011;56378;52.404;20.816;2023-02-13T05:10:25;23.85;;;8.98;;
69260;SDS011;56378;52.404;20.816;2023-02-13T05:12:51;28.40;;;9.70;;
69260;SDS011;56378;52.404;20.816;2023-02-13T05:15:17;20.55;;;9.25;;
69260;SDS011;56378;52.404;20.816;2023-02-13T05:17:44;24.23;;;9.05;;
69260;SDS011;56378;52.404;20.816;2023-02-13T05:20:10;22.98;;;9.25;;
69260;SDS011;56378;52.404;20.816;2023-02-13T05:22:42;20.20;;;8.60;;
69260;SDS011;56378;52.404;20.816;2023-02-13T05:25:30;20.58;;;9.00;;
69260;SDS011;56378;52.404;20.816;2023-02-13T05:27:56;23.88;;;9.25;;
69260;SDS011;56378;52.404;20.816;2023-02-13T05:30:22;22.15;;;9.02;;
69260;SDS011;56378;52.404;20.816;2023-02-13T05:32:48;20.95;;;8.52;;
69260;SDS011;56378;52.404;20.816;2023-02-13T05:35:19;26.85;;;9.85;;
69260;SDS011;56378;52.404;20.816;2023-02-13T05:37:45;24.83;;;9.27;;
69260;SDS011;56378;52.404;20.816;2023-02-13T05:40:11;27.38;;;10.35;;
69260;SDS011;56378;52.404;20.816;2023-02-13T05:42:38;23.60;;;8.90;;
69260;SDS011;56378;52.404;20.816;2023-02-13T05:45:05;24.83;;;9.43;;
69260;SDS011;56378;52.404;20.816;2023-02-13T05:47:31;26.43;;;9.17;;
69260;SDS011;56378;52.404;20.816;2023-02-13T05:49:57;25.23;;;10.02;;
69260;SDS011;56378;52.404;20.816;2023-02-13T05:52:23;24.58;;;9.38;;
69260;SDS011;56378;52.404;20.816;2023-02-13T05:54:49;26.58;;;9.95;;
69260;SDS011;56378;52.404;20.816;2023-02-13T05:57:15;24.02;;;9.10;;
69260;SDS011;56378;52.404;20.816;2023-02-13T05:59:40;25.93;;;9.40;;
69260;SDS011;56378;52.404;20.816;2023-02-13T06:02:06;21.95;;;8.93;;
69260;SDS011;56378;52.404;20.816;2023-02-13T06:04:32;22.37;;;8.80;;
69260;SDS011;56378;52.404;20.816;2023-02-13T06:06:58;25.45;;;9.05;;
69260;SDS011;56378;52.404;20.816;2023-02-13T06:09:24;23.98;;;9.30;;
69260;SDS011;56378;52.404;20.816;2023-02-13T06:11:49;22.48;;;9.50;;
69260;SDS011;56378;52.404;20.816;2023-02-13T06:14:15;22.23;;;9.43;;
69260;SDS011;56378;52.404;20.816;2023-02-13T06:16:41;24.83;;;8.82;;
69260;SDS011;56378;52.404;20.816;2023-02-13T06:19:06;24.43;;;9.43;;
69260;SDS011;56378;52.404;20.816;2023-02-13T06:21:32;25.30;;;9.02;;
69260;SDS011;56378;52.404;20.816;2023-02-13T06:24:02;24.95;;;9.73;;
69260;SDS011;56378;52.404;20.816;2023-02-13T06:26:28;25.05;;;9.60;;
69260;SDS011;56378;52.404;20.816;2023-02-13T06:28:54;25.33;;;9.30;;
69260;SDS011;56378;52.404;20.816;2023-02-13T06:31:20;25.13;;;9.40;;
69260;SDS011;56378;52.404;20.816;2023-02-13T06:33:46;30.87;;;11.30;;
69260;SDS011;56378;52.404;20.816;2023-02-13T06:36:11;29.48;;;10.35;;
69260;SDS011;56378;52.404;20.816;2023-02-13T06:38:37;29.70;;;11.37;;
69260;SDS011;56378;52.404;20.816;2023-02-13T06:41:03;26.83;;;10.57;;
69260;SDS011;56378;52.404;20.816;2023-02-13T06:43:29;25.33;;;10.40;;
69260;SDS011;56378;52.404;20.816;2023-02-13T06:45:54;24.42;;;10.20;;
69260;SDS011;56378;52.404;20.816;2023-02-13T06:48:21;23.38;;;10.00;;
69260;SDS011;56378;52.404;20.816;2023-02-13T06:50:47;22.85;;;9.50;;
69260;SDS011;56378;52.404;20.816;2023-02-13T06:53:12;21.05;;;8.57;;
69260;SDS011;56378;52.404;20.816;2023-02-13T06:55:38;22.40;;;8.23;;
69260;SDS011;56378;52.404;20.816;2023-02-13T06:58:04;23.63;;;8.53;;
69260;SDS011;56378;52.404;20.816;2023-02-13T07:00:30;21.73;;;8.48;;
69260;SDS011;56378;52.404;20.816;2023-02-13T07:03:03;19.90;;;8.00;;
69260;SDS011;56378;52.404;20.816;2023-02-13T07:05:30;21.02;;;7.93;;
69260;SDS011;56378;52.404;20.816;2023-02-13T07:07:56;20.08;;;8.20;;
69260;SDS011;56378;52.404;20.816;2023-02-13T07:10:22;22.08;;;8.88;;
69260;SDS011;56378;52.404;20.816;2023-02-13T07:12:47;21.90;;;8.65;;
69260;SDS011;56378;52.404;20.816;2023-02-13T07:15:14;22.42;;;9.60;;
69260;SDS011;56378;52.404;20.816;2023-02-13T07:17:40;24.48;;;9.38;;
69260;SDS011;56378;52.404;20.816;2023-02-13T07:20:06;24.50;;;9.23;;
69260;SDS011;56378;52.404;20.816;2023-02-13T07:22:32;20.98;;;8.85;;
69260;SDS011;56378;52.404;20.816;2023-02-13T07:24:59;25.17;;;9.73;;
69260;SDS011;56378;52.404;20.816;2023-02-13T07:27:25;20.05;;;9.98;;
69260;SDS011;56378;52.404;20.816;2023-02-13T07:29:57;23.92;;;9.90;;
69260;SDS011;56378;52.404;20.816;2023-02-13T07:32:24;21.40;;;9.40;;
69260;SDS011;56378;52.404;20.816;2023-02-13T07:34:49;25.05;;;9.98;;
69260;SDS011;56378;52.404;20.816;2023-02-13T07:37:15;21.80;;;10.00;;
69260;SDS011;56378;52.404;20.816;2023-02-13T07:39:41;20.55;;;8.82;;
69260;SDS011;56378;52.404;20.816;2023-02-13T07:42:07;21.70;;;9.27;;
69260;SDS011;56378;52.404;20.816;2023-02-13T07:44:32;25.20;;;9.30;;
69260;SDS011;56378;52.404;20.816;2023-02-13T07:46:58;25.83;;;10.70;;
69260;SDS011;56378;52.404;20.816;2023-02-13T07:49:25;24.25;;;10.50;;
69260;SDS011;56378;52.404;20.816;2023-02-13T07:51:50;23.97;;;10.60;;
69260;SDS011;56378;52.404;20.816;2023-02-13T07:54:16;23.30;;;10.20;;
69260;SDS011;56378;52.404;20.816;2023-02-13T07:56:42;24.37;;;11.13;;
69260;SDS011;56378;52.404;20.816;2023-02-13T07:59:08;22.95;;;9.50;;
69260;SDS011;56378;52.404;20.816;2023-02-13T08:01:35;23.90;;;9.70;;
69260;SDS011;56378;52.404;20.816;2023-02-13T08:04:00;24.17;;;9.98;;
69260;SDS011;56378;52.404;20.816;2023-02-13T08:06:26;26.50;;;10.07;;
69260;SDS011;56378;52.404;20.816;2023-02-13T08:08:52;20.92;;;9.10;;
69260;SDS011;56378;52.404;20.816;2023-02-13T08:11:37;23.45;;;9.23;;
69260;SDS011;56378;52.404;20.816;2023-02-13T08:14:24;25.13;;;9.07;;
69260;SDS011;56378;52.404;20.816;2023-02-13T08:16:51;23.38;;;9.23;;
69260;SDS011;56378;52.404;20.816;2023-02-13T08:19:18;26.25;;;9.02;;
69260;SDS011;56378;52.404;20.816;2023-02-13T08:21:44;20.98;;;8.63;;
69260;SDS011;56378;52.404;20.816;2023-02-13T08:24:10;23.25;;;10.10;;
69260;SDS011;56378;52.404;20.816;2023-02-13T08:26:37;17.43;;;8.23;;
69260;SDS011;56378;52.404;20.816;2023-02-13T08:29:03;20.55;;;8.65;;
69260;SDS011;56378;52.404;20.816;2023-02-13T08:31:30;17.58;;;8.20;;
69260;SDS011;56378;52.404;20.816;2023-02-13T08:33:55;19.47;;;7.73;;
69260;SDS011;56378;52.404;20.816;2023-02-13T08:36:22;20.35;;;8.20;;
69260;SDS011;56378;52.404;20.816;2023-02-13T08:38:48;17.77;;;7.65;;
69260;SDS011;56378;52.404;20.816;2023-02-13T08:41:14;19.80;;;7.72;;
69260;SDS011;56378;52.404;20.816;2023-02-13T08:43:43;22.92;;;9.05;;
69260;SDS011;56378;52.404;20.816;2023-02-13T08:46:09;18.20;;;7.82;;
69260;SDS011;56378;52.404;20.816;2023-02-13T08:48:34;18.40;;;7.70;;
69260;SDS011;56378;52.404;20.816;2023-02-13T08:51:04;16.13;;;7.85;;
69260;SDS011;56378;52.404;20.816;2023-02-13T08:53:33;16.75;;;7.50;;
69260;SDS011;56378;52.404;20.816;2023-02-13T08:56:00;17.98;;;7.60;;
69260;SDS011;56378;52.404;20.816;2023-02-13T08:58:26;18.30;;;7.95;;
69260;SDS011;56378;52.404;20.816;2023-02-13T09:00:52;21.80;;;8.67;;
69260;SDS011;56378;52.404;20.816;2023-02-13T09:03:18;21.45;;;9.55;;
69260;SDS011;56378;52.404;20.816;2023-02-13T09:05:44;25.90;;;10.13;;
69260;SDS011;56378;52.404;20.816;2023-02-13T09:08:10;22.87;;;9.67;;
69260;SDS011;56378;52.404;20.816;2023-02-13T09:10:37;19.15;;;9.10;;
69260;SDS011;56378;52.404;20.816;2023-02-13T09:13:04;17.73;;;8.65;;
69260;SDS011;56378;52.404;20.816;2023-02-13T09:15:30;17.88;;;9.10;;
69260;SDS011;56378;52.404;20.816;2023-02-13T09:17:56;19.00;;;8.43;;
69260;SDS011;56378;52.404;20.816;2023-02-13T09:20:22;17.55;;;8.73;;
69260;SDS011;56378;52.404;20.816;2023-02-13T09:22:48;18.83;;;8.23;;
69260;SDS011;56378;52.404;20.816;2023-02-13T09:25:13;21.77;;;9.25;;
69260;SDS011;56378;52.404;20.816;2023-02-13T09:27:39;18.33;;;8.07;;
69260;SDS011;56378;52.404;20.816;2023-02-13T09:30:06;23.07;;;8.40;;
69260;SDS011;56378;52.404;20.816;2023-02-13T09:32:33;20.55;;;7.38;;
69260;SDS011;56378;52.404;20.816;2023-02-13T09:34:59;17.80;;;7.53;;
69260;SDS011;56378;52.404;20.816;2023-02-13T09:37:26;16.23;;;7.37;;
69260;SDS011;56378;52.404;20.816;2023-02-13T09:39:52;14.68;;;6.75;;
69260;SDS011;56378;52.404;20.816;2023-02-13T09:42:22;14.98;;;6.20;;
69260;SDS011;56378;52.404;20.816;2023-02-13T09:44:55;13.18;;;6.45;;
69260;SDS011;56378;52.404;20.816;2023-02-13T09:47:33;15.85;;;6.53;;
69260;SDS011;56378;52.404;20.816;2023-02-13T09:50:06;12.85;;;6.60;;
69260;SDS011;56378;52.404;20.816;2023-02-13T09:52:40;15.82;;;7.00;;
69260;SDS011;56378;52.404;20.816;2023-02-13T09:55:13;14.73;;;6.70;;
69260;SDS011;56378;52.404;20.816;2023-02-13T09:58:30;16.98;;;7.38;;
69260;SDS011;56378;52.404;20.816;2023-02-13T10:00:53;14.57;;;6.97;;
69260;SDS011;56378;52.404;20.816;2023-02-13T10:06:07;16.92;;;7.55;;
69260;SDS011;56378;52.404;20.816;2023-02-13T10:14:01;18.67;;;7.78;;
69260;SDS011;56378;52.404;20.816;2023-02-13T10:16:48;17.42;;;7.90;;
69260;SDS011;56378;52.404;20.816;2023-02-13T10:20:01;15.15;;;7.13;;
69260;SDS011;56378;52.404;20.816;2023-02-13T10:22:19;15.93;;;7.13;;
69260;SDS011;56378;52.404;20.816;2023-02-13T10:24:53;15.07;;;7.43;;
69260;SDS011;56378;52.404;20.816;2023-02-13T10:27:31;16.63;;;7.22;;
69260;SDS011;56378;52.404;20.816;2023-02-13T10:33:10;17.15;;;7.53;;
69260;SDS011;56378;52.404;20.816;2023-02-13T10:38:30;19.10;;;7.50;;
69260;SDS011;56378;52.404;20.816;2023-02-13T10:41:04;15.98;;;7.40;;
69260;SDS011;56378;52.404;20.816;2023-02-13T10:46:54;18.77;;;7.75;;
69260;SDS011;56378;52.404;20.816;2023-02-13T10:58:05;16.73;;;7.70;;
69260;SDS011;56378;52.404;20.816;2023-02-13T11:00:38;17.88;;;7.80;;
69260;SDS011;56378;52.404;20.816;2023-02-13T11:03:16;20.50;;;9.07;;
69260;SDS011;56378;52.404;20.816;2023-02-13T11:05:44;19.95;;;8.32;;
69260;SDS011;56378;52.404;20.816;2023-02-13T11:08:23;19.63;;;8.85;;
69260;SDS011;56378;52.404;20.816;2023-02-13T11:14:06;21.20;;;8.80;;
69260;SDS011;56378;52.404;20.816;2023-02-13T11:19:36;17.50;;;7.60;;
69260;SDS011;56378;52.404;20.816;2023-02-13T11:22:11;18.35;;;8.85;;
69260;SDS011;56378;52.404;20.816;2023-02-13T11:24:39;16.67;;;8.50;;
69260;SDS011;56378;52.404;20.816;2023-02-13T11:27:08;22.87;;;8.47;;
69260;SDS011;56378;52.404;20.816;2023-02-13T11:29:50;16.10;;;8.70;;
69260;SDS011;56378;52.404;20.816;2023-02-13T11:32:30;18.35;;;8.13;;
69260;SDS011;56378;52.404;20.816;2023-02-13T11:34:58;17.30;;;8.20;;
69260;SDS011;56378;52.404;20.816;2023-02-13T11:37:50;16.90;;;8.00;;
69260;SDS011;56378;52.404;20.816;2023-02-13T11:40:49;17.95;;;7.93;;
69260;SDS011;56378;52.404;20.816;2023-02-13T11:43:28;17.52;;;8.57;;
69260;SDS011;56378;52.404;20.816;2023-02-13T11:46:07;19.40;;;8.35;;
69260;SDS011;56378;52.404;20.816;2023-02-13T11:48:42;18.75;;;7.78;;
69260;SDS011;56378;52.404;20.816;2023-02-13T11:51:19;18.63;;;7.90;;
69260;SDS011;56378;52.404;20.816;2023-02-13T11:53:58;17.93;;;8.03;;
69260;SDS011;56378;52.404;20.816;2023-02-13T11:56:25;18.23;;;7.80;;
69260;SDS011;56378;52.404;20.816;2023-02-13T11:58:59;17.85;;;8.73;;
69260;SDS011;56378;52.404;20.816;2023-02-13T12:01:27;16.97;;;7.23;;
69260;SDS011;56378;52.404;20.816;2023-02-13T12:06:38;16.98;;;7.55;;
69260;SDS011;56378;52.404;20.816;2023-02-13T12:09:10;20.58;;;7.95;;
69260;SDS011;56378;52.404;20.816;2023-02-13T12:11:52;15.20;;;7.33;;
69260;SDS011;56378;52.404;20.816;2023-02-13T12:14:21;14.88;;;7.20;;
69260;SDS011;56378;52.404;20.816;2023-02-13T12:16:54;13.57;;;6.55;;
69260;SDS011;56378;52.404;20.816;2023-02-13T12:19:34;15.25;;;6.80;;
69260;SDS011;56378;52.404;20.816;2023-02-13T12:25:10;14.27;;;6.93;;
69260;SDS011;56378;52.404;20.816;2023-02-13T12:27:48;15.80;;;7.25;;
69260;SDS011;56378;52.404;20.816;2023-02-13T12:30:29;14.13;;;6.28;;
69260;SDS011;56378;52.404;20.816;2023-02-13T12:33:09;13.38;;;6.07;;
69260;SDS011;56378;52.404;20.816;2023-02-13T12:36:20;14.57;;;6.95;;
69260;SDS011;56378;52.404;20.816;2023-02-13T12:39:08;18.53;;;7.73;;
69260;SDS011;56378;52.404;20.816;2023-02-13T12:45:30;17.05;;;7.20;;
69260;SDS011;56378;52.404;20.816;2023-02-13T12:48:15;15.40;;;6.70;;
69260;SDS011;56378;52.404;20.816;2023-02-13T12:53:34;14.27;;;6.20;;
69260;SDS011;56378;52.404;20.816;2023-02-13T12:57:04;14.75;;;6.70;;
69260;SDS011;56378;52.404;20.816;2023-02-13T13:01:48;12.75;;;5.75;;
69260;SDS011;56378;52.404;20.816;2023-02-13T13:10:34;12.40;;;5.50;;
69260;SDS011;56378;52.404;20.816;2023-02-13T13:15:39;11.85;;;5.05;;
69260;SDS011;56378;52.404;20.816;2023-02-13T13:18:50;10.70;;;4.68;;
69260;SDS011;56378;52.404;20.816;2023-02-13T13:21:46;10.70;;;4.10;;
69260;SDS011;56378;52.404;20.816;2023-02-13T13:27:22;9.60;;;4.20;;
69260;SDS011;56378;52.404;20.816;2023-02-13T13:29:58;9.75;;;4.07;;
69260;SDS011;56378;52.404;20.816;2023-02-13T13:32:27;13.93;;;4.75;;
69260;SDS011;56378;52.404;20.816;2023-02-13T13:34:55;13.00;;;4.50;;
69260;SDS011;56378;52.404;20.816;2023-02-13T13:43:20;10.85;;;3.95;;
69260;SDS011;56378;52.404;20.816;2023-02-13T13:45:59;10.35;;;4.10;;
69260;SDS011;56378;52.404;20.816;2023-02-13T13:51:36;11.25;;;4.30;;
69260;SDS011;56378;52.404;20.816;2023-02-13T13:59:19;10.53;;;4.33;;
69260;SDS011;56378;52.404;20.816;2023-02-13T14:04:59;13.43;;;4.53;;
69260;SDS011;56378;52.404;20.816;2023-02-13T14:07:25;12.80;;;5.15;;
69260;SDS011;56378;52.404;20.816;2023-02-13T14:09:50;11.80;;;4.83;;
69260;SDS011;56378;52.404;20.816;2023-02-13T14:12:34;10.18;;;4.40;;
69260;SDS011;56378;52.404;20.816;2023-02-13T14:15:00;14.50;;;5.13;;
69260;SDS011;56378;52.404;20.816;2023-02-13T14:22:55;10.57;;;4.97;;
69260;SDS011;56378;52.404;20.816;2023-02-13T14:25:29;11.52;;;4.28;;
69260;SDS011;56378;52.404;20.816;2023-02-13T14:27:57;10.77;;;4.43;;
69260;SDS011;56378;52.404;20.816;2023-02-13T14:30:32;14.57;;;5.00;;
69260;SDS011;56378;52.404;20.816;2023-02-13T14:33:01;12.52;;;4.90;;
69260;SDS011;56378;52.404;20.816;2023-02-13T14:35:31;14.45;;;4.43;;
69260;SDS011;56378;52.404;20.816;2023-02-13T14:38:02;11.13;;;4.80;;
69260;SDS011;56378;52.404;20.816;2023-02-13T14:40:41;10.77;;;4.30;;
69260;SDS011;56378;52.404;20.816;2023-02-13T14:43:22;12.98;;;5.22;;
69260;SDS011;56378;52.404;20.816;2023-02-13T14:51:19;10.85;;;5.18;;
69260;SDS011;56378;52.404;20.816;2023-02-13T14:54:15;15.33;;;4.67;;
69260;SDS011;56378;52.404;20.816;2023-02-13T14:56:58;13.55;;;5.50;;
69260;SDS011;56378;52.404;20.816;2023-02-13T14:59:37;13.95;;;5.45;;
69260;SDS011;56378;52.404;20.816;2023-02-13T15:04:40;13.32;;;5.40;;
69260;SDS011;56378;52.404;20.816;2023-02-13T15:07:20;15.47;;;5.00;;
69260;SDS011;56378;52.404;20.816;2023-02-13T15:09:52;14.27;;;5.78;;
69260;SDS011;56378;52.404;20.816;2023-02-13T15:12:30;18.02;;;6.97;;
69260;SDS011;56378;52.404;20.816;2023-02-13T15:14:58;16.02;;;6.07;;
69260;SDS011;56378;52.404;20.816;2023-02-13T15:17:26;17.65;;;6.53;;
69260;SDS011;56378;52.404;20.816;2023-02-13T15:19:58;16.70;;;6.60;;
69260;SDS011;56378;52.404;20.816;2023-02-13T15:22:38;17.90;;;6.15;;
69260;SDS011;56378;52.404;20.816;2023-02-13T15:25:28;17.30;;;6.32;;
69260;SDS011;56378;52.404;20.816;2023-02-13T15:28:01;12.50;;;5.55;;
69260;SDS011;56378;52.404;20.816;2023-02-13T15:30:30;15.43;;;5.38;;
69260;SDS011;56378;52.404;20.816;2023-02-13T15:32:59;16.10;;;6.20;;
69260;SDS011;56378;52.404;20.816;2023-02-13T15:35:39;12.50;;;5.90;;
69260;SDS011;56378;52.404;20.816;2023-02-13T15:38:24;16.98;;;6.22;;
69260;SDS011;56378;52.404;20.816;2023-02-13T15:41:05;13.18;;;5.82;;
69260;SDS011;56378;52.404;20.816;2023-02-13T15:43:45;19.52;;;6.97;;
69260;SDS011;56378;52.404;20.816;2023-02-13T15:46:20;21.83;;;8.07;;
69260;SDS011;56378;52.404;20.816;2023-02-13T15:48:54;19.08;;;6.35;;
69260;SDS011;56378;52.404;20.816;2023-02-13T15:51:26;20.20;;;7.28;;
69260;SDS011;56378;52.404;20.816;2023-02-13T15:53:58;31.10;;;8.95;;
69260;SDS011;56378;52.404;20.816;2023-02-13T15:56:26;34.70;;;8.57;;
69260;SDS011;56378;52.404;20.816;2023-02-13T15:58:53;35.33;;;10.47;;
69260;SDS011;56378;52.404;20.816;2023-02-13T16:01:20;16.85;;;6.60;;
69260;SDS011;56378;52.404;20.816;2023-02-13T16:03:51;21.95;;;7.85;;
69260;SDS011;56378;52.404;20.816;2023-02-13T16:06:23;21.13;;;7.07;;
69260;SDS011;56378;52.404;20.816;2023-02-13T16:08:51;24.67;;;8.05;;
69260;SDS011;56378;52.404;20.816;2023-02-13T16:13:59;18.80;;;6.70;;
69260;SDS011;56378;52.404;20.816;2023-02-13T16:16:29;21.15;;;6.47;;
69260;SDS011;56378;52.404;20.816;2023-02-13T16:19:00;20.38;;;7.20;;
69260;SDS011;56378;52.404;20.816;2023-02-13T16:21:26;24.95;;;8.85;;
69260;SDS011;56378;52.404;20.816;2023-02-13T16:24:02;15.20;;;6.67;;
69260;SDS011;56378;52.404;20.816;2023-02-13T16:26:31;15.35;;;7.57;;
69260;SDS011;56378;52.404;20.816;2023-02-13T16:29:00;17.67;;;7.22;;
69260;SDS011;56378;52.404;20.816;2023-02-13T16:31:26;20.05;;;8.35;;
69260;SDS011;56378;52.404;20.816;2023-02-13T16:33:52;26.00;;;10.33;;
69260;SDS011;56378;52.404;20.816;2023-02-13T16:36:24;17.75;;;8.32;;
69260;SDS011;56378;52.404;20.816;2023-02-13T16:38:53;22.50;;;9.15;;
69260;SDS011;56378;52.404;20.816;2023-02-13T16:43:52;22.40;;;10.90;;
69260;SDS011;56378;52.404;20.816;2023-02-13T16:54:16;16.48;;;7.25;;
69260;SDS011;56378;52.404;20.816;2023-02-13T17:04:38;16.58;;;6.32;;
69260;SDS011;56378;52.404;20.816;2023-02-13T17:07:10;17.27;;;6.35;;
69260;SDS011;56378;52.404;20.816;2023-02-13T17:09:37;13.80;;;5.63;;
69260;SDS011;56378;52.404;20.816;2023-02-13T17:12:03;15.07;;;6.27;;
69260;SDS011;56378;52.404;20.816;2023-02-13T17:14:36;15.40;;;6.05;;
69260;SDS011;56378;52.404;20.816;2023-02-13T17:17:01;12.20;;;5.77;;
69260;SDS011;56378;52.404;20.816;2023-02-13T17:19:33;12.02;;;5.50;;